Flight Track Log - Related Links

Times and Time Zones

All times are in EDT time to prevent confusion due to time zone crossing. See the EJA922 flight status page for this flight to view local times or setup timezone preferences in your user account.

Time Position Orientation Groundspeed Altitude Reporting Facility
EDT Latitude Longitude Course Direction KTS MPH feet Rate Location/Type
Sun 09:56:30 AM 39.1833 -76.7167 284° West 206 237 1,400  Level Potomac TRACON
Sun 09:57:30 AM 39.2000 -76.8000 284° West 263 303 5,100 3,750 Climbing Potomac TRACON
Sun 09:58:30 AM 39.2167 -76.8833 284° West 276 318 8,900 3,750 Climbing Potomac TRACON
Sun 09:59:30 AM 39.2500 -76.9833 293° West 287 330 12,600 3,570 Climbing Potomac TRACON
Sun 10:00:31 AM 39.2833 -77.0833 293° West 288 331 16,100 1,251 Climbing Potomac TRACON
Sun 10:03:01 AM 39.3697 -77.3339 294° West 323 372 17,000 404 Climbing Washington Center
Sun 10:03:59 AM 39.4097 -77.4531 294° West 347 399 17,500 950 Climbing Washington Center
Sun 10:05:01 AM 39.4494 -77.5722 293° West 360 414 18,900 1,475 Climbing Washington Center
Sun 10:06:01 AM 39.4869 -77.6944 292° West 360 414 20,500 1,322 Climbing Washington Center
Sun 10:06:59 AM 39.5144 -77.7919 290° West 360 414 21,500 1,152 Climbing Washington Center
Sun 10:08:32 AM 39.5883 -78.0294 292° West 372 428 23,400 1,137 Climbing Cleveland Center
Sun 10:09:32 AM 39.6286 -78.1600 292° West 377 434 24,400 1,000 Climbing Cleveland Center
Sun 10:10:32 AM 39.6644 -78.2828 291° West 395 455 25,400 1,000 Climbing Cleveland Center
Sun 10:11:32 AM 39.7047 -78.4164 291° West 401 461 26,400 950 Climbing Cleveland Center
Sun 10:12:32 AM 39.7447 -78.5556 291° West 401 461 27,300 950 Climbing Cleveland Center
Sun 10:13:32 AM 39.7869 -78.7108 290° West 406 467 28,300 950 Climbing Cleveland Center
Sun 10:14:32 AM 39.8267 -78.8478 291° West 406 467 29,200 950 Climbing Cleveland Center
Sun 10:15:32 AM 39.8706 -78.9900 292° West 406 467 30,200 1,000 Climbing Cleveland Center
Sun 10:16:32 AM 39.9119 -79.1322 291° West 412 474 31,200 850 Climbing Cleveland Center
Sun 10:17:32 AM 39.9533 -79.2750 291° West 412 474 31,900 600 Climbing Cleveland Center
Sun 10:18:32 AM 40.0050 -79.4122 296° West 418 481 32,400 850 Climbing Cleveland Center
Sun 10:19:32 AM 40.0708 -79.5439 303° West 423 487 33,600 1,700 Climbing Cleveland Center
Sun 10:20:32 AM 40.1364 -79.6733 304° West 431 496 35,800 1,200 Climbing Cleveland Center
Sun 10:21:32 AM 40.2019 -79.7975 305° West 424 488 36,000 200 Climbing Cleveland Center
Sun 10:22:32 AM 40.2697 -79.9328 303° West 431 496 36,200 450 Climbing Cleveland Center
Sun 10:23:32 AM 40.3286 -80.0603 301° West 458 527 36,900 650 Climbing Cleveland Center
Sun 10:24:32 AM 40.4000 -80.1986 304° West 458 527 37,500 550 Climbing Cleveland Center
Sun 10:25:32 AM 40.4692 -80.3375 303° West 458 527 38,000 250 Climbing Cleveland Center
Sun 10:26:32 AM 40.5467 -80.4792 306° West 463 533 38,000  Level Cleveland Center
Sun 10:27:32 AM 40.6217 -80.6350 302° West 463 533 38,000 350 Level Cleveland Center
Sun 10:28:32 AM 40.6883 -80.7639 304° West 463 533 38,700 750 Climbing Cleveland Center
Sun 10:29:32 AM 40.7483 -80.9092 299° West 457 526 39,500 650 Climbing Cleveland Center
Sun 10:30:32 AM 40.8042 -81.0742 294° West 447 514 40,000 250 Climbing Cleveland Center
Sun 10:31:32 AM 40.8575 -81.2228 295° West 447 514 40,000  Level Cleveland Center
Sun 10:32:32 AM 40.9128 -81.3744 296° West 456 525 40,000  Level Cleveland Center
Sun 10:33:32 AM 40.9658 -81.5264 295° West 456 525 40,000  Level Cleveland Center
Sun 10:34:32 AM 41.0147 -81.6647 295° West 456 525 40,000  Level Cleveland Center
Sun 10:35:32 AM 41.0694 -81.8169 296° West 461 531 40,000  Level Cleveland Center
Sun 10:36:32 AM 41.1261 -81.9642 297° West 456 525 40,000  Level Cleveland Center
Sun 10:37:32 AM 41.1822 -82.1336 294° West 450 518 40,000  Level Cleveland Center
Sun 10:38:32 AM 41.2364 -82.2867 295° West 462 532 40,000  Level Cleveland Center
Sun 10:39:32 AM 41.2903 -82.4403 295° West 455 524 40,000  Level Cleveland Center
Sun 10:40:32 AM 41.3419 -82.5911 295° West 455 524 40,000  Level Cleveland Center
Sun 10:41:32 AM 41.3914 -82.7447 293° West 455 524 40,000  Level Cleveland Center
Sun 10:42:32 AM 41.4467 -82.8964 296° West 449 517 40,000  Level Cleveland Center
Sun 10:43:32 AM 41.4997 -83.0533 294° West 454 522 40,000  Level Cleveland Center
Sun 10:44:32 AM 41.5467 -83.1911 295° West 454 522 40,000  Level Cleveland Center
Sun 10:45:32 AM 41.5972 -83.3458 294° West 454 522 40,000  Level Cleveland Center
Sun 10:46:32 AM 41.6497 -83.5011 294° West 459 528 40,000  Level Cleveland Center
Sun 10:47:32 AM 41.7000 -83.6536 294° West 459 528 40,000  Level Cleveland Center
Sun 10:48:32 AM 41.7539 -83.8119 295° West 459 528 40,000  Level Cleveland Center
Sun 10:49:32 AM 41.7994 -83.9703 291° West 465 535 40,000 100 Level Cleveland Center
Sun 10:50:32 AM 41.8361 -84.1311 287° West 460 529 40,200 708 Climbing Cleveland Center
Sun 10:52:47 AM 41.9103 -84.4867 286° West 434 499 42,300 761 Climbing Chicago Center
Sun 10:53:49 AM 41.9408 -84.6392 285° West 427 491 42,700 242 Climbing Chicago Center
Sun 10:54:51 AM 41.9722 -84.7975 285° West 438 504 42,800 145 Climbing Chicago Center
Sun 10:55:53 AM 42.0056 -84.9694 285° West 440 506 43,000 97 Climbing Chicago Center
Sun 10:56:55 AM 42.0375 -85.1308 285° West 446 513 43,000  Level Chicago Center
Sun 10:57:57 AM 42.0686 -85.2928 285° West 448 516 43,000  Level Chicago Center
Sun 10:58:59 AM 42.1056 -85.4894 284° West 448 516 43,000  Level Chicago Center
Sun 11:00:01 AM 42.1375 -85.6542 285° West 453 521 43,000  Level Chicago Center
Sun 11:01:03 AM 42.1675 -85.8194 284° West 454 522 43,000  Level Chicago Center
Sun 11:02:05 AM 42.2003 -85.9925 284° West 453 521 43,000  Level Chicago Center
Sun 11:03:07 AM 42.2300 -86.1556 284° West 452 520 43,000  Level Chicago Center
Sun 11:04:09 AM 42.2600 -86.3231 284° West 460 529 43,000  Level Chicago Center
Sun 11:05:11 AM 42.2900 -86.4892 284° West 456 525 43,000  Level Chicago Center
Sun 11:06:13 AM 42.3258 -86.6828 284° West 457 526 43,000  Level Chicago Center
Sun 11:07:15 AM 42.3556 -86.8506 284° West 461 531 43,000  Level Chicago Center
Sun 11:08:17 AM 42.3856 -87.0169 284° West 461 531 43,000  Level Chicago Center
Sun 11:09:19 AM 42.4125 -87.1808 283° West 456 525 43,000  Level Chicago Center
Sun 11:10:21 AM 42.4419 -87.3494 283° West 462 532 43,000  Level Chicago Center
Sun 11:11:22 AM 42.4767 -87.5514 283° West 464 534 43,000  Level Chicago Center
Sun 11:12:24 AM 42.5050 -87.7217 283° West 466 536 43,000  Level Chicago Center
Sun 11:13:26 AM 42.5325 -87.8878 283° West 466 536 43,000  Level Chicago Center
Sun 11:14:28 AM 42.5608 -88.0597 283° West 465 535 43,000  Level Chicago Center
Sun 11:15:30 AM 42.5942 -88.2592 283° West 463 533 43,000  Level Chicago Center
Sun 11:16:32 AM 42.6222 -88.4303 283° West 463 533 43,000  Level Chicago Center
Sun 11:17:34 AM 42.6494 -88.6014 282° West 462 532 43,000  Level Chicago Center
Sun 11:18:36 AM 42.6761 -88.7706 282° West 457 526 43,000  Level Chicago Center
Sun 11:19:38 AM 42.7022 -88.9381 282° West 453 521 43,000  Level Chicago Center
Sun 11:20:40 AM 42.7294 -89.1075 282° West 454 522 43,000  Level Chicago Center
Sun 11:21:42 AM 42.7603 -89.3022 282° West 451 519 43,000  Level Chicago Center
Sun 11:22:44 AM 42.7847 -89.4706 281° West 452 520 43,000  Level Chicago Center
Sun 11:23:46 AM 42.8108 -89.6403 282° West 454 522 43,000  Level Chicago Center
Sun 11:24:48 AM 42.8358 -89.8111 281° West 457 526 43,000  Level Chicago Center
Sun 11:25:50 AM 42.8631 -89.9886 282° West 458 527 43,000  Level Chicago Center
Sun 11:26:52 AM 42.8867 -90.1567 281° West 458 527 43,000  Level Chicago Center
Sun 11:27:54 AM 42.9136 -90.3250 282° West 461 531 43,000  Level Chicago Center
Sun 11:28:56 AM 42.9369 -90.4933 281° West 459 528 43,000  Level Chicago Center
Sun 11:29:58 AM 42.9636 -90.6939 280° West 454 522 43,000  Level Chicago Center
Sun 11:31:00 AM 42.9878 -90.8619 281° West 457 526 43,000  Level Chicago Center
Sun 11:32:02 AM 43.0114 -91.0317 281° West 461 531 43,000  Level Chicago Center
Sun 11:33:04 AM 43.0358 -91.2011 281° West 461 531 43,000  Level Chicago Center
Sun 11:34:14 AM 43.0633 -91.4028 281° West 462 532 43,000  Level Minneapolis Center
Sun 11:35:16 AM 43.0911 -91.6064 281° West 464 534 43,000  Level Minneapolis Center
Sun 11:36:10 AM 43.1069 -91.7428 279° West 463 533 43,000  Level Chicago Center
Sun 11:37:12 AM 43.1283 -91.9136 280° West 464 534 43,000  Level Chicago Center
Sun 11:38:15 AM 43.1542 -92.1192 280° West 464 534 43,000  Level Chicago Center
Sun 11:39:17 AM 43.1756 -92.2928 280° West 469 540 43,000  Level Chicago Center
Sun 11:40:26 AM 43.2028 -92.5039 280° West 476 548 43,000  Level Minneapolis Center
Sun 11:41:21 AM 43.2200 -92.6417 280° West 469 540 43,000  Level Chicago Center
Sun 11:42:23 AM 43.2403 -92.8142 279° West 466 536 43,000  Level Chicago Center
Sun 11:43:25 AM 43.2647 -93.0239 279° West 469 540 43,000  Level Chicago Center
Sun 11:44:27 AM 43.2856 -93.1964 279° West 466 536 43,000  Level Chicago Center
Sun 11:45:29 AM 43.3047 -93.3697 279° West 464 534 43,000  Level Chicago Center
Sun 11:46:31 AM 43.3261 -93.5400 280° West 460 529 43,000  Level Chicago Center
Sun 11:47:41 AM 43.3492 -93.7483 279° West 462 532 43,000  Level Minneapolis Center
Sun 11:48:43 AM 43.3692 -93.9206 279° West 462 532 43,000  Level Minneapolis Center
Sun 11:49:45 AM 43.3919 -94.1269 279° West 461 531 43,000  Level Minneapolis Center
Sun 11:50:59 AM 43.4153 -94.3400 279° West 461 531 43,000  Level Minneapolis Center
Sun 11:52:01 AM 43.4339 -94.5158 278° West 465 535 43,000  Level Minneapolis Center
Sun 11:53:03 AM 43.4525 -94.6906 278° West 464 534 43,000 144 Level Minneapolis Center
Sun 11:54:06 AM 43.4689 -94.8656 277° West 463 533 43,300 387 Climbing Minneapolis Center
Sun 11:55:07 AM 43.4872 -95.0372 278° West 456 525 43,800 537 Climbing Minneapolis Center
Sun 11:56:09 AM 43.5078 -95.2417 278° West 451 519 44,400 480 Climbing Minneapolis Center
Sun 11:57:12 AM 43.5242 -95.4119 278° West 448 516 44,800 288 Climbing Minneapolis Center
Sun 11:58:14 AM 43.5406 -95.5831 278° West 450 518 45,000 97 Climbing Minneapolis Center
Sun 11:59:16 AM 43.5569 -95.7539 278° West 449 517 45,000  Level Minneapolis Center
Sun 12:00:22 PM 43.5767 -95.9617 278° West 454 522 45,000  Level Minneapolis Center
Sun 12:01:24 PM 43.5925 -96.1358 277° West 455 524 45,000  Level Minneapolis Center
Sun 12:02:26 PM 43.6078 -96.3100 277° West 455 524 45,000  Level Minneapolis Center
Sun 12:03:28 PM 43.6236 -96.4850 277° West 457 526 45,000  Level Minneapolis Center
Sun 12:04:30 PM 43.6386 -96.6583 277° West 455 524 45,000  Level Minneapolis Center
Sun 12:05:32 PM 43.6533 -96.8328 277° West 455 524 45,000  Level Minneapolis Center
Sun 12:06:34 PM 43.6667 -97.0072 276° West 456 525 45,000  Level Minneapolis Center
Sun 12:07:36 PM 43.6822 -97.2178 276° West 458 527 45,000  Level Minneapolis Center
Sun 12:08:38 PM 43.6961 -97.3914 276° West 455 524 45,000  Level Minneapolis Center
Sun 12:09:40 PM 43.7083 -97.5661 276° West 456 525 45,000  Level Minneapolis Center
Sun 12:10:42 PM 43.7217 -97.7394 276° West 454 522 45,000  Level Minneapolis Center
Sun 12:11:45 PM 43.7331 -97.9139 275° West 455 524 45,000  Level Minneapolis Center
Sun 12:12:47 PM 43.7467 -98.0861 276° West 452 520 45,000  Level Minneapolis Center
Sun 12:13:49 PM 43.7597 -98.2958 275° West 457 526 45,000  Level Minneapolis Center
Sun 12:14:51 PM 43.7719 -98.4669 276° West 449 517 45,000  Level Minneapolis Center
Sun 12:15:53 PM 43.7822 -98.6417 275° West 455 524 45,000  Level Minneapolis Center
Sun 12:16:55 PM 43.7933 -98.8128 275° West 452 520 45,000  Level Minneapolis Center
Sun 12:17:57 PM 43.8047 -98.9844 275° West 449 517 45,000  Level Minneapolis Center
Sun 12:18:59 PM 43.8147 -99.1597 275° West 453 521 45,000  Level Minneapolis Center
Sun 12:20:01 PM 43.8272 -99.3697 275° West 455 524 45,000  Level Minneapolis Center
Sun 12:21:03 PM 43.8356 -99.5486 274° West 460 529 45,000  Level Minneapolis Center
Sun 12:22:05 PM 43.8458 -99.7247 275° West 458 527 45,000  Level Minneapolis Center
Sun 12:23:07 PM 43.8556 -99.9000 274° West 456 525 45,000  Level Minneapolis Center
Sun 12:24:09 PM 43.8650 -100.0756 274° West 457 526 45,000  Level Minneapolis Center
Sun 12:25:12 PM 43.8728 -100.2528 274° West 458 527 45,000  Level Minneapolis Center
Sun 12:26:14 PM 43.8803 -100.4261 273° West 453 521 45,000  Level Minneapolis Center
Sun 12:27:16 PM 43.8919 -100.6394 274° West 459 528 45,000  Level Minneapolis Center
Sun 12:28:18 PM 43.8997 -100.8164 274° West 459 528 45,000  Level Minneapolis Center
Sun 12:29:20 PM 43.9075 -100.9950 274° West 462 532 45,000  Level Minneapolis Center
Sun 12:30:22 PM 43.9147 -101.1717 273° West 460 529 45,000  Level Minneapolis Center
Sun 12:31:24 PM 43.9208 -101.3481 273° West 458 527 45,000 -55 Level Minneapolis Center
Sun 12:32:11 PM 43.9275 -101.4906 274° West 461 531 44,900 -385 Descending Denver Center
Sun 12:33:13 PM 43.9333 -101.6711 273° West 465 535 44,300 -629 Descending Denver Center
Sun 12:34:15 PM 43.9367 -101.8511 272° West 468 539 43,600 -629 Descending Denver Center
Sun 12:35:17 PM 43.9433 -102.0692 273° West 470 541 43,000 -288 Descending Denver Center
Sun 12:36:20 PM 43.9511 -102.2522 273° West 473 544 43,000  Level Denver Center
Sun 12:37:22 PM 43.9581 -102.4331 273° West 471 542 43,000  Level Denver Center
Sun 12:38:24 PM 43.9633 -102.6139 272° West 470 541 43,000  Level Denver Center
Sun 12:39:26 PM 43.9692 -102.7939 273° West 467 537 43,000  Level Denver Center
Sun 12:40:28 PM 43.9761 -102.9831 273° West 469 540 43,000  Level Denver Center
Sun 12:41:30 PM 43.9803 -103.1811 272° West 465 535 43,000  Level Denver Center
Sun 12:42:31 PM 43.9819 -103.3236 271° West 464 534 43,000  Level Denver Center
Sun 12:43:34 PM 43.9858 -103.5517 271° West 464 534 43,000  Level Denver Center
Sun 12:44:36 PM 43.9886 -103.7236 271° West 467 537 43,000  Level Denver Center
Sun 12:45:38 PM 43.9925 -103.9267 272° West 472 543 43,000  Level Denver Center
Sun 12:46:40 PM 43.9953 -104.0983 271° West 469 540 43,000  Level Denver Center
Sun 12:47:42 PM 43.9972 -104.2994 271° West 468 539 43,000  Level Denver Center
Sun 12:48:44 PM 43.9992 -104.4697 271° West 464 534 43,000  Level Denver Center
Sun 12:49:46 PM 44.0006 -104.6725 271° West 469 540 43,000  Level Denver Center
Sun 12:50:48 PM 44.0022 -104.8461 271° West 471 542 43,000  Level Denver Center
Sun 12:51:50 PM 44.0028 -105.0497 270° West 472 543 43,000  Level Denver Center
Sun 12:52:52 PM 44.0033 -105.2231 270° West 472 543 43,000  Level Denver Center
Sun 12:53:54 PM 44.0047 -105.3958 271° West 470 541 43,000  Level Denver Center
Sun 12:54:56 PM 44.0044 -105.5978 270° West 470 541 43,000  Level Denver Center
Sun 12:55:58 PM 44.0047 -105.7689 270° West 467 537 43,000  Level Denver Center
Sun 12:57:00 PM 44.0006 -105.9697 268° West 466 536 43,000  Level Denver Center
Sun 12:58:15 PM 43.9908 -106.1978 267° West 464 534 43,000  Level Denver Center
Sun 12:58:46 PM 43.9828 -106.2911 263° West 468 539 43,000  Level Salt Lake Center
Sun 12:59:48 PM 43.9717 -106.4667 265° West 459 528 43,000  Level Salt Lake Center
Sun 01:00:19 PM 43.9653 -106.5658 265° West 460 529 43,000  Level Denver Center
Sun 01:00:50 PM 43.9586 -106.6514 264° West 462 532 43,000  Level Salt Lake Center
Sun 01:01:52 PM 43.9458 -106.8228 264° West 465 535 43,000  Level Salt Lake Center
Sun 01:02:23 PM 43.9389 -106.9283 265° West 463 533 43,000  Level Denver Center
Sun 01:03:25 PM 43.9264 -107.1064 264° West 464 534 43,000  Level Denver Center
Sun 01:03:56 PM 43.9192 -107.1819 262° West 465 535 43,000  Level Salt Lake Center
Sun 01:04:58 PM 43.9036 -107.3956 264° West 464 534 43,000  Level Salt Lake Center
Sun 01:06:00 PM 43.8894 -107.5742 264° West 465 535 43,000  Level Salt Lake Center
Sun 01:07:02 PM 43.8778 -107.7508 265° West 459 528 43,000  Level Salt Lake Center
Sun 01:08:04 PM 43.8650 -107.9300 264° West 465 535 43,000  Level Salt Lake Center
Sun 01:09:06 PM 43.8494 -108.1100 263° West 468 539 43,000  Level Salt Lake Center
Sun 01:10:08 PM 43.8353 -108.2903 264° West 470 541 43,000  Level Salt Lake Center
Sun 01:11:10 PM 43.8181 -108.5064 264° West 471 542 43,000 -145 Level Salt Lake Center
Sun 01:12:12 PM 43.8025 -108.6858 263° West 470 541 42,700 -1,008 Descending Salt Lake Center
Sun 01:13:15 PM 43.7886 -108.8617 264° West 464 534 40,900 -2,256 Descending Salt Lake Center
Sun 01:14:17 PM 43.7725 -109.0344 263° West 457 526 38,000 -3,000 Descending Salt Lake Center
Sun 01:15:19 PM 43.7553 -109.2144 263° West 465 535 34,700 -3,242 Descending Salt Lake Center
Sun 01:16:21 PM 43.7394 -109.4003 263° West 482 555 31,300 -3,435 Descending Salt Lake Center
Sun 01:17:23 PM 43.7211 -109.5953 263° West 494 568 27,600 -3,532 Descending Salt Lake Center
Sun 01:18:25 PM 43.7017 -109.7975 262° West 477 549 24,000 -3,290 Descending Salt Lake Center
Sun 01:19:27 PM 43.6861 -109.9606 263° West 453 521 20,800 -3,968 Descending Salt Lake Center
Sun 01:20:29 PM 43.6681 -110.1422 262° West 417 480 15,800 -3,290 Descending Salt Lake Center
Sun 01:21:31 PM 43.6653 -110.2856 269° West 382 440 14,000 -864 Descending Salt Lake Center
Sun 01:22:34 PM 43.6833 -110.3925 283° West 298 343 14,000 -48 Level Salt Lake Center
Sun 01:23:35 PM 43.6958 -110.4617 284° West 196 226 13,900 -976 Descending Salt Lake Center
Sun 01:24:37 PM 43.7114 -110.5156 292° West 158 182 12,000 -2,323 Descending Salt Lake Center
Sun 01:25:39 PM 43.7222 -110.5911 281° West 164 189 9,100 -1,887 Descending Salt Lake Center
Sun 01:26:41 PM 43.7222 -110.6514 270° West 162 186 8,100 -532 Descending Salt Lake Center
Sun 01:27:43 PM 43.6956 -110.6950 230° Southwest 155 178 8,000 -387 Descending Salt Lake Center
Sun 01:28:45 PM 43.6561 -110.7147 200° South 151 174 7,300 -726 Descending Salt Lake Center
Sun 01:29:47 PM 43.6181 -110.7325 199° South 148 170 6,500 -774 Descending Salt Lake Center

Login

Don't have an account? Register now (free) for customized features, flight alerts, and more!